sensor_id;sensor_type;location;lat;lon;timestamp;noise_LAeq;noise_LA_min;noise_LA_max;noise_LA01;noise_LA95
67300;Laerm;57658;51.436;5.980;2023-08-31T00:00:02;68.97;34.04;79.37;;
67300;Laerm;57658;51.436;5.980;2023-08-31T00:00:14;72.56;55.29;79.13;;
67300;Laerm;57658;51.436;5.980;2023-08-31T00:00:25;57.80;53.57;60.22;;
67300;Laerm;57658;51.436;5.980;2023-08-31T00:00:39;57.43;52.72;59.50;;
67300;Laerm;57658;51.436;5.980;2023-08-31T00:00:50;76.59;53.48;88.50;;
67300;Laerm;57658;51.436;5.980;2023-08-31T00:01:03;85.08;81.03;90.34;;
67300;Laerm;57658;51.436;5.980;2023-08-31T00:01:14;79.62;55.37;87.66;;
67300;Laerm;57658;51.436;5.980;2023-08-31T00:01:24;49.48;39.20;59.88;;
67300;Laerm;57658;51.436;5.980;2023-08-31T00:01:34;37.22;33.30;43.83;;
67300;Laerm;57658;51.436;5.980;2023-08-31T00:01:45;33.40;31.76;38.83;;
67300;Laerm;57658;51.436;5.980;2023-08-31T00:01:55;32.20;31.03;34.68;;
67300;Laerm;57658;51.436;5.980;2023-08-31T00:02:06;31.86;30.71;33.00;;
67300;Laerm;57658;51.436;5.980;2023-08-31T00:02:16;31.43;29.90;32.61;;
67300;Laerm;57658;51.436;5.980;2023-08-31T00:02:27;31.63;30.22;39.93;;
67300;Laerm;57658;51.436;5.980;2023-08-31T00:02:38;31.43;30.29;32.68;;
67300;Laerm;57658;51.436;5.980;2023-08-31T00:02:49;31.28;29.95;33.05;;
67300;Laerm;57658;51.436;5.980;2023-08-31T00:02:59;31.58;30.28;32.93;;
67300;Laerm;57658;51.436;5.980;2023-08-31T00:03:10;31.33;30.22;32.66;;
67300;Laerm;57658;51.436;5.980;2023-08-31T00:03:20;31.23;30.05;32.68;;
67300;Laerm;57658;51.436;5.980;2023-08-31T00:03:31;31.40;29.90;32.93;;
67300;Laerm;57658;51.436;5.980;2023-08-31T00:03:41;31.45;30.06;33.42;;
67300;Laerm;57658;51.436;5.980;2023-08-31T00:03:51;31.36;30.04;33.04;;
67300;Laerm;57658;51.436;5.980;2023-08-31T00:04:02;31.37;30.15;33.04;;
67300;Laerm;57658;51.436;5.980;2023-08-31T00:04:14;31.64;30.31;33.47;;
67300;Laerm;57658;51.436;5.980;2023-08-31T00:04:24;73.11;30.35;78.31;;
67300;Laerm;57658;51.436;5.980;2023-08-31T00:04:35;69.02;52.60;78.08;;
67300;Laerm;57658;51.436;5.980;2023-08-31T00:04:45;57.27;53.03;59.47;;
67300;Laerm;57658;51.436;5.980;2023-08-31T00:04:55;57.30;52.68;59.45;;
67300;Laerm;57658;51.436;5.980;2023-08-31T00:05:05;57.90;53.03;60.67;;
67300;Laerm;57658;51.436;5.980;2023-08-31T00:05:16;83.06;57.75;89.82;;
67300;Laerm;57658;51.436;5.980;2023-08-31T00:05:26;84.90;78.95;89.72;;
67300;Laerm;57658;51.436;5.980;2023-08-31T00:05:38;80.36;61.26;87.93;;
67300;Laerm;57658;51.436;5.980;2023-08-31T00:05:50;56.80;49.02;63.46;;
67300;Laerm;57658;51.436;5.980;2023-08-31T00:06:02;47.60;42.98;52.13;;
67300;Laerm;57658;51.436;5.980;2023-08-31T00:06:12;43.56;40.17;46.63;;
67300;Laerm;57658;51.436;5.980;2023-08-31T00:06:23;41.56;39.13;44.06;;
67300;Laerm;57658;51.436;5.980;2023-08-31T00:06:33;41.98;39.13;45.26;;
67300;Laerm;57658;51.436;5.980;2023-08-31T00:06:44;42.89;38.06;45.74;;
67300;Laerm;57658;51.436;5.980;2023-08-31T00:06:56;37.30;35.02;41.15;;
67300;Laerm;57658;51.436;5.980;2023-08-31T00:07:07;36.17;34.14;38.65;;
67300;Laerm;57658;51.436;5.980;2023-08-31T00:07:17;35.72;33.52;39.58;;
67300;Laerm;57658;51.436;5.980;2023-08-31T00:07:27;39.39;36.26;41.97;;
67300;Laerm;57658;51.436;5.980;2023-08-31T00:07:37;35.32;33.43;37.95;;
67300;Laerm;57658;51.436;5.980;2023-08-31T00:07:48;70.52;35.31;79.28;;
67300;Laerm;57658;51.436;5.980;2023-08-31T00:07:58;72.76;54.69;78.66;;
67300;Laerm;57658;51.436;5.980;2023-08-31T00:08:08;57.45;52.16;59.89;;
67300;Laerm;57658;51.436;5.980;2023-08-31T00:08:19;57.22;52.37;59.32;;
67300;Laerm;57658;51.436;5.980;2023-08-31T00:08:32;57.37;52.27;60.25;;
67300;Laerm;57658;51.436;5.980;2023-08-31T00:08:42;81.58;57.55;87.46;;
67300;Laerm;57658;51.436;5.980;2023-08-31T00:08:53;83.73;80.08;88.83;;
67300;Laerm;57658;51.436;5.980;2023-08-31T00:09:03;78.23;55.54;86.50;;
67300;Laerm;57658;51.436;5.980;2023-08-31T00:09:15;50.32;41.76;60.13;;
67300;Laerm;57658;51.436;5.980;2023-08-31T00:09:26;44.12;40.17;47.56;;
67300;Laerm;57658;51.436;5.980;2023-08-31T00:09:36;48.90;42.01;53.89;;
67300;Laerm;57658;51.436;5.980;2023-08-31T00:09:47;59.89;47.97;65.62;;
67300;Laerm;57658;51.436;5.980;2023-08-31T00:09:57;70.57;40.31;78.75;;
67300;Laerm;57658;51.436;5.980;2023-08-31T00:10:08;71.84;54.52;78.58;;
67300;Laerm;57658;51.436;5.980;2023-08-31T00:10:21;57.38;52.82;59.96;;
67300;Laerm;57658;51.436;5.980;2023-08-31T00:10:31;56.74;51.92;59.38;;
67300;Laerm;57658;51.436;5.980;2023-08-31T00:10:41;57.55;52.77;60.57;;
67300;Laerm;57658;51.436;5.980;2023-08-31T00:10:58;79.91;58.97;87.68;;
67300;Laerm;57658;51.436;5.980;2023-08-31T00:11:08;79.64;69.68;82.88;;
67300;Laerm;57658;51.436;5.980;2023-08-31T00:11:18;62.97;48.16;72.11;;
67300;Laerm;57658;51.436;5.980;2023-08-31T00:11:30;48.41;44.17;52.41;;
67300;Laerm;57658;51.436;5.980;2023-08-31T00:11:40;43.89;38.01;53.49;;
67300;Laerm;57658;51.436;5.980;2023-08-31T00:11:50;39.27;36.21;42.21;;
67300;Laerm;57658;51.436;5.980;2023-08-31T00:12:01;42.00;37.53;45.50;;
67300;Laerm;57658;51.436;5.980;2023-08-31T00:12:12;40.58;36.53;45.27;;
67300;Laerm;57658;51.436;5.980;2023-08-31T00:12:23;35.90;33.84;38.74;;
67300;Laerm;57658;51.436;5.980;2023-08-31T00:12:33;36.74;32.84;39.09;;
67300;Laerm;57658;51.436;5.980;2023-08-31T00:12:43;34.53;32.98;37.15;;
67300;Laerm;57658;51.436;5.980;2023-08-31T00:12:53;33.31;31.23;36.13;;
67300;Laerm;57658;51.436;5.980;2023-08-31T00:13:04;33.10;31.28;34.91;;
67300;Laerm;57658;51.436;5.980;2023-08-31T00:13:16;32.85;31.49;34.58;;
67300;Laerm;57658;51.436;5.980;2023-08-31T00:13:26;33.32;31.44;36.86;;
67300;Laerm;57658;51.436;5.980;2023-08-31T00:13:37;32.31;30.86;33.80;;
67300;Laerm;57658;51.436;5.980;2023-08-31T00:13:48;32.05;30.93;33.21;;
67300;Laerm;57658;51.436;5.980;2023-08-31T00:13:58;32.43;31.00;33.82;;
67300;Laerm;57658;51.436;5.980;2023-08-31T00:14:08;33.01;31.49;34.78;;
67300;Laerm;57658;51.436;5.980;2023-08-31T00:14:19;32.25;30.25;33.81;;
67300;Laerm;57658;51.436;5.980;2023-08-31T00:14:29;31.79;30.22;33.15;;
67300;Laerm;57658;51.436;5.980;2023-08-31T00:14:39;31.47;30.04;32.45;;
67300;Laerm;57658;51.436;5.980;2023-08-31T00:14:50;31.20;30.03;32.81;;
67300;Laerm;57658;51.436;5.980;2023-08-31T00:15:00;31.66;30.52;32.96;;
67300;Laerm;57658;51.436;5.980;2023-08-31T00:15:10;31.53;30.32;32.93;;
67300;Laerm;57658;51.436;5.980;2023-08-31T00:15:21;31.35;30.21;32.46;;
67300;Laerm;57658;51.436;5.980;2023-08-31T00:15:31;31.75;30.40;32.77;;
67300;Laerm;57658;51.436;5.980;2023-08-31T00:15:43;31.22;29.93;32.77;;
67300;Laerm;57658;51.436;5.980;2023-08-31T00:15:54;31.73;30.46;33.32;;
67300;Laerm;57658;51.436;5.980;2023-08-31T00:16:06;31.56;30.32;32.85;;
67300;Laerm;57658;51.436;5.980;2023-08-31T00:16:23;31.31;29.88;32.51;;
67300;Laerm;57658;51.436;5.980;2023-08-31T00:16:33;31.06;29.58;32.84;;
67300;Laerm;57658;51.436;5.980;2023-08-31T00:16:44;31.66;30.48;35.26;;
67300;Laerm;57658;51.436;5.980;2023-08-31T00:16:57;31.62;29.94;33.05;;
67300;Laerm;57658;51.436;5.980;2023-08-31T00:17:08;31.68;30.31;32.87;;
67300;Laerm;57658;51.436;5.980;2023-08-31T00:17:18;31.64;30.38;32.58;;
67300;Laerm;57658;51.436;5.980;2023-08-31T00:17:29;31.78;30.76;33.07;;
67300;Laerm;57658;51.436;5.980;2023-08-31T00:17:39;31.77;30.67;32.87;;
67300;Laerm;57658;51.436;5.980;2023-08-31T00:17:49;31.85;30.58;33.37;;
67300;Laerm;57658;51.436;5.980;2023-08-31T00:18:00;32.19;30.80;33.84;;
67300;Laerm;57658;51.436;5.980;2023-08-31T00:18:11;32.21;30.67;33.63;;
67300;Laerm;57658;51.436;5.980;2023-08-31T00:18:23;31.97;30.68;33.70;;
67300;Laerm;57658;51.436;5.980;2023-08-31T00:18:34;33.56;31.76;35.87;;
67300;Laerm;57658;51.436;5.980;2023-08-31T00:18:46;33.47;31.84;35.12;;
67300;Laerm;57658;51.436;5.980;2023-08-31T00:18:56;33.62;31.36;35.19;;
67300;Laerm;57658;51.436;5.980;2023-08-31T00:19:07;35.15;33.04;37.59;;
67300;Laerm;57658;51.436;5.980;2023-08-31T00:19:17;65.51;32.78;78.64;;
67300;Laerm;57658;51.436;5.980;2023-08-31T00:19:27;73.20;66.23;78.65;;
67300;Laerm;57658;51.436;5.980;2023-08-31T00:19:38;65.25;53.23;78.59;;
67300;Laerm;57658;51.436;5.980;2023-08-31T00:19:48;57.03;53.29;58.66;;
67300;Laerm;57658;51.436;5.980;2023-08-31T00:19:58;57.34;53.72;59.23;;
67300;Laerm;57658;51.436;5.980;2023-08-31T00:20:08;74.01;55.16;84.69;;
67300;Laerm;57658;51.436;5.980;2023-08-31T00:20:22;85.20;82.48;88.02;;
67300;Laerm;57658;51.436;5.980;2023-08-31T00:20:32;82.65;61.19;86.42;;
67300;Laerm;57658;51.436;5.980;2023-08-31T00:20:43;57.44;44.05;63.47;;
67300;Laerm;57658;51.436;5.980;2023-08-31T00:20:53;40.74;35.24;45.76;;
67300;Laerm;57658;51.436;5.980;2023-08-31T00:21:04;35.37;32.87;37.88;;
67300;Laerm;57658;51.436;5.980;2023-08-31T00:21:14;33.47;31.49;36.54;;
67300;Laerm;57658;51.436;5.980;2023-08-31T00:21:25;32.82;31.09;35.07;;
67300;Laerm;57658;51.436;5.980;2023-08-31T00:21:35;33.02;31.02;35.25;;
67300;Laerm;57658;51.436;5.980;2023-08-31T00:21:45;34.12;31.81;37.21;;
67300;Laerm;57658;51.436;5.980;2023-08-31T00:21:56;33.17;31.28;35.67;;
67300;Laerm;57658;51.436;5.980;2023-08-31T00:22:06;32.87;31.11;34.78;;
67300;Laerm;57658;51.436;5.980;2023-08-31T00:22:16;33.34;31.45;35.46;;
67300;Laerm;57658;51.436;5.980;2023-08-31T00:22:26;33.79;31.64;35.80;;
67300;Laerm;57658;51.436;5.980;2023-08-31T00:22:37;32.73;31.32;34.73;;
67300;Laerm;57658;51.436;5.980;2023-08-31T00:22:48;33.56;32.19;35.27;;
67300;Laerm;57658;51.436;5.980;2023-08-31T00:22:58;35.34;32.92;38.13;;
67300;Laerm;57658;51.436;5.980;2023-08-31T00:23:08;42.49;35.41;46.77;;
67300;Laerm;57658;51.436;5.980;2023-08-31T00:23:19;56.56;45.38;62.32;;
67300;Laerm;57658;51.436;5.980;2023-08-31T00:23:29;43.09;33.85;49.38;;
67300;Laerm;57658;51.436;5.980;2023-08-31T00:23:39;32.97;30.56;36.74;;
67300;Laerm;57658;51.436;5.980;2023-08-31T00:23:50;31.79;30.57;32.73;;
67300;Laerm;57658;51.436;5.980;2023-08-31T00:24:00;31.49;30.39;32.78;;
67300;Laerm;57658;51.436;5.980;2023-08-31T00:24:10;31.19;30.12;32.18;;
67300;Laerm;57658;51.436;5.980;2023-08-31T00:24:21;31.55;30.52;32.43;;
67300;Laerm;57658;51.436;5.980;2023-08-31T00:24:32;31.53;30.43;32.69;;
67300;Laerm;57658;51.436;5.980;2023-08-31T00:24:45;31.62;30.44;33.43;;
67300;Laerm;57658;51.436;5.980;2023-08-31T00:24:55;31.25;29.73;32.48;;
67300;Laerm;57658;51.436;5.980;2023-08-31T00:25:06;31.45;30.08;32.59;;
67300;Laerm;57658;51.436;5.980;2023-08-31T00:25:18;31.48;30.16;32.43;;
67300;Laerm;57658;51.436;5.980;2023-08-31T00:25:28;31.86;30.58;34.17;;
67300;Laerm;57658;51.436;5.980;2023-08-31T00:25:39;32.07;30.13;33.27;;
67300;Laerm;57658;51.436;5.980;2023-08-31T00:25:49;31.87;30.77;33.32;;
67300;Laerm;57658;51.436;5.980;2023-08-31T00:26:03;32.08;30.44;33.68;;
67300;Laerm;57658;51.436;5.980;2023-08-31T00:26:15;31.53;30.09;36.56;;
67300;Laerm;57658;51.436;5.980;2023-08-31T00:26:25;31.85;30.32;34.84;;
67300;Laerm;57658;51.436;5.980;2023-08-31T00:26:36;31.58;30.12;36.03;;
67300;Laerm;57658;51.436;5.980;2023-08-31T00:26:50;31.53;29.93;36.86;;
67300;Laerm;57658;51.436;5.980;2023-08-31T00:27:01;31.30;30.22;36.63;;
67300;Laerm;57658;51.436;5.980;2023-08-31T00:27:13;31.22;30.01;32.87;;
67300;Laerm;57658;51.436;5.980;2023-08-31T00:27:25;31.25;30.13;32.37;;
67300;Laerm;57658;51.436;5.980;2023-08-31T00:27:35;31.26;30.01;32.27;;
67300;Laerm;57658;51.436;5.980;2023-08-31T00:27:47;31.73;30.41;35.36;;
67300;Laerm;57658;51.436;5.980;2023-08-31T00:27:58;31.21;29.84;32.50;;
67300;Laerm;57658;51.436;5.980;2023-08-31T00:28:15;31.95;30.40;36.43;;
67300;Laerm;57658;51.436;5.980;2023-08-31T00:28:25;73.34;30.61;79.25;;
67300;Laerm;57658;51.436;5.980;2023-08-31T00:28:37;67.43;53.40;78.18;;
67300;Laerm;57658;51.436;5.980;2023-08-31T00:28:48;56.54;51.92;58.63;;
67300;Laerm;57658;51.436;5.980;2023-08-31T00:28:59;56.87;52.77;58.37;;
67300;Laerm;57658;51.436;5.980;2023-08-31T00:29:09;76.14;53.98;84.37;;
67300;Laerm;57658;51.436;5.980;2023-08-31T00:29:20;79.61;76.06;83.79;;
67300;Laerm;57658;51.436;5.980;2023-08-31T00:29:31;77.73;62.26;82.74;;
67300;Laerm;57658;51.436;5.980;2023-08-31T00:29:41;57.97;44.98;63.83;;
67300;Laerm;57658;51.436;5.980;2023-08-31T00:29:53;44.88;40.72;48.99;;
67300;Laerm;57658;51.436;5.980;2023-08-31T00:30:05;40.65;37.65;49.18;;
67300;Laerm;57658;51.436;5.980;2023-08-31T00:30:17;38.72;36.48;41.57;;
67300;Laerm;57658;51.436;5.980;2023-08-31T00:30:28;36.54;34.03;39.90;;
67300;Laerm;57658;51.436;5.980;2023-08-31T00:30:39;35.99;33.86;39.01;;
67300;Laerm;57658;51.436;5.980;2023-08-31T00:30:49;36.14;33.47;38.86;;
67300;Laerm;57658;51.436;5.980;2023-08-31T00:31:00;34.17;31.80;37.88;;
67300;Laerm;57658;51.436;5.980;2023-08-31T00:31:14;48.22;32.78;64.40;;
67300;Laerm;57658;51.436;5.980;2023-08-31T00:31:24;35.62;32.66;39.73;;
67300;Laerm;57658;51.436;5.980;2023-08-31T00:31:35;34.68;32.20;41.53;;
67300;Laerm;57658;51.436;5.980;2023-08-31T00:31:45;35.06;33.20;45.69;;
67300;Laerm;57658;51.436;5.980;2023-08-31T00:31:58;42.77;32.72;54.82;;
67300;Laerm;57658;51.436;5.980;2023-08-31T00:32:08;61.63;51.88;66.18;;
67300;Laerm;57658;51.436;5.980;2023-08-31T00:32:18;53.64;43.81;61.05;;
67300;Laerm;57658;51.436;5.980;2023-08-31T00:32:29;44.05;39.13;47.47;;
67300;Laerm;57658;51.436;5.980;2023-08-31T00:32:39;39.48;36.02;42.54;;
67300;Laerm;57658;51.436;5.980;2023-08-31T00:32:50;35.39;33.34;38.16;;
67300;Laerm;57658;51.436;5.980;2023-08-31T00:33:00;33.77;31.65;35.95;;
67300;Laerm;57658;51.436;5.980;2023-08-31T00:33:14;32.37;31.17;33.65;;
67300;Laerm;57658;51.436;5.980;2023-08-31T00:33:25;32.67;31.04;35.41;;
67300;Laerm;57658;51.436;5.980;2023-08-31T00:33:39;32.52;30.84;33.70;;
67300;Laerm;57658;51.436;5.980;2023-08-31T00:33:49;31.85;30.54;33.45;;
67300;Laerm;57658;51.436;5.980;2023-08-31T00:34:00;31.85;30.60;34.38;;
67300;Laerm;57658;51.436;5.980;2023-08-31T00:34:13;31.92;30.61;33.01;;
67300;Laerm;57658;51.436;5.980;2023-08-31T00:34:27;31.60;30.23;33.03;;
67300;Laerm;57658;51.436;5.980;2023-08-31T00:34:37;31.32;30.37;32.24;;
67300;Laerm;57658;51.436;5.980;2023-08-31T00:34:48;31.43;30.36;32.72;;
67300;Laerm;57658;51.436;5.980;2023-08-31T00:34:58;31.52;30.48;32.91;;
67300;Laerm;57658;51.436;5.980;2023-08-31T00:35:09;31.51;30.36;32.48;;
67300;Laerm;57658;51.436;5.980;2023-08-31T00:35:19;31.86;30.39;33.59;;
67300;Laerm;57658;51.436;5.980;2023-08-31T00:35:29;31.79;30.36;33.49;;
67300;Laerm;57658;51.436;5.980;2023-08-31T00:35:40;31.94;30.85;35.25;;
67300;Laerm;57658;51.436;5.980;2023-08-31T00:36:00;31.57;30.19;33.15;;
67300;Laerm;57658;51.436;5.980;2023-08-31T00:36:11;31.67;30.50;33.88;;
67300;Laerm;57658;51.436;5.980;2023-08-31T00:36:21;31.18;29.61;32.55;;
67300;Laerm;57658;51.436;5.980;2023-08-31T00:36:32;31.57;30.27;33.04;;
67300;Laerm;57658;51.436;5.980;2023-08-31T00:36:43;31.22;30.09;32.51;;
67300;Laerm;57658;51.436;5.980;2023-08-31T00:36:53;31.35;30.07;32.61;;
67300;Laerm;57658;51.436;5.980;2023-08-31T00:37:04;31.31;29.87;32.68;;
67300;Laerm;57658;51.436;5.980;2023-08-31T00:37:14;31.06;30.05;32.03;;
67300;Laerm;57658;51.436;5.980;2023-08-31T00:37:24;31.88;30.78;33.39;;
67300;Laerm;57658;51.436;5.980;2023-08-31T00:37:35;31.45;29.95;32.97;;
67300;Laerm;57658;51.436;5.980;2023-08-31T00:37:45;31.91;30.90;32.89;;
67300;Laerm;57658;51.436;5.980;2023-08-31T00:37:55;31.76;30.59;33.10;;
67300;Laerm;57658;51.436;5.980;2023-08-31T00:38:08;31.41;30.28;32.38;;
67300;Laerm;57658;51.436;5.980;2023-08-31T00:38:18;31.92;30.47;34.15;;
67300;Laerm;57658;51.436;5.980;2023-08-31T00:38:30;31.51;30.18;32.70;;
67300;Laerm;57658;51.436;5.980;2023-08-31T00:38:40;31.19;30.15;32.61;;
67300;Laerm;57658;51.436;5.980;2023-08-31T00:38:50;31.89;30.44;33.29;;
67300;Laerm;57658;51.436;5.980;2023-08-31T00:39:04;31.08;29.91;32.22;;
67300;Laerm;57658;51.436;5.980;2023-08-31T00:39:20;31.08;29.77;32.34;;
67300;Laerm;57658;51.436;5.980;2023-08-31T00:39:31;31.18;30.06;34.18;;
67300;Laerm;57658;51.436;5.980;2023-08-31T00:39:42;30.92;29.36;32.09;;
67300;Laerm;57658;51.436;5.980;2023-08-31T00:39:53;31.49;30.17;33.07;;
67300;Laerm;57658;51.436;5.980;2023-08-31T00:40:04;31.61;30.50;33.25;;
67300;Laerm;57658;51.436;5.980;2023-08-31T00:40:17;31.35;29.87;32.58;;
67300;Laerm;57658;51.436;5.980;2023-08-31T00:40:28;32.14;30.34;33.94;;
67300;Laerm;57658;51.436;5.980;2023-08-31T00:40:41;31.48;30.30;32.76;;
67300;Laerm;57658;51.436;5.980;2023-08-31T00:40:54;31.43;30.06;32.91;;
67300;Laerm;57658;51.436;5.980;2023-08-31T00:41:05;31.17;29.68;32.11;;
67300;Laerm;57658;51.436;5.980;2023-08-31T00:41:15;31.22;30.11;32.41;;
67300;Laerm;57658;51.436;5.980;2023-08-31T00:41:25;31.07;29.89;31.92;;
67300;Laerm;57658;51.436;5.980;2023-08-31T00:41:36;31.41;30.21;32.71;;
67300;Laerm;57658;51.436;5.980;2023-08-31T00:41:46;32.04;30.56;33.86;;
67300;Laerm;57658;51.436;5.980;2023-08-31T00:41:57;32.43;30.88;36.28;;
67300;Laerm;57658;51.436;5.980;2023-08-31T00:42:07;32.68;31.56;34.08;;
67300;Laerm;57658;51.436;5.980;2023-08-31T00:42:18;36.77;32.07;44.10;;
67300;Laerm;57658;51.436;5.980;2023-08-31T00:42:28;44.71;40.52;52.27;;
67300;Laerm;57658;51.436;5.980;2023-08-31T00:42:39;39.67;34.77;49.07;;
67300;Laerm;57658;51.436;5.980;2023-08-31T00:42:50;33.83;31.35;36.88;;
67300;Laerm;57658;51.436;5.980;2023-08-31T00:43:00;33.09;31.80;34.50;;
67300;Laerm;57658;51.436;5.980;2023-08-31T00:43:11;33.53;31.91;35.25;;
67300;Laerm;57658;51.436;5.980;2023-08-31T00:43:21;33.77;32.08;37.14;;
67300;Laerm;57658;51.436;5.980;2023-08-31T00:43:32;71.65;33.16;79.15;;
67300;Laerm;57658;51.436;5.980;2023-08-31T00:43:42;71.91;53.16;78.80;;
67300;Laerm;57658;51.436;5.980;2023-08-31T00:43:53;57.12;52.65;59.10;;
67300;Laerm;57658;51.436;5.980;2023-08-31T00:44:03;57.38;53.17;59.17;;
67300;Laerm;57658;51.436;5.980;2023-08-31T00:44:17;57.53;52.94;62.23;;
67300;Laerm;57658;51.436;5.980;2023-08-31T00:44:27;83.93;61.37;93.50;;
67300;Laerm;57658;51.436;5.980;2023-08-31T00:44:38;83.38;80.39;86.90;;
67300;Laerm;57658;51.436;5.980;2023-08-31T00:44:49;84.34;79.19;90.48;;
67300;Laerm;57658;51.436;5.980;2023-08-31T00:44:59;82.24;71.52;89.06;;
67300;Laerm;57658;51.436;5.980;2023-08-31T00:45:09;63.63;47.27;79.15;;
67300;Laerm;57658;51.436;5.980;2023-08-31T00:45:20;45.31;41.06;48.33;;
67300;Laerm;57658;51.436;5.980;2023-08-31T00:45:32;42.36;38.01;45.94;;
67300;Laerm;57658;51.436;5.980;2023-08-31T00:45:42;39.31;34.82;44.21;;
67300;Laerm;57658;51.436;5.980;2023-08-31T00:45:54;39.15;36.30;42.62;;
67300;Laerm;57658;51.436;5.980;2023-08-31T00:46:08;37.51;35.07;40.49;;
67300;Laerm;57658;51.436;5.980;2023-08-31T00:46:18;40.86;36.90;52.69;;
67300;Laerm;57658;51.436;5.980;2023-08-31T00:46:28;42.75;36.29;47.80;;
67300;Laerm;57658;51.436;5.980;2023-08-31T00:46:40;57.91;44.44;62.62;;
67300;Laerm;57658;51.436;5.980;2023-08-31T00:46:50;43.90;39.71;49.41;;
67300;Laerm;57658;51.436;5.980;2023-08-31T00:47:01;42.44;38.04;46.02;;
67300;Laerm;57658;51.436;5.980;2023-08-31T00:47:15;40.22;37.42;42.55;;
67300;Laerm;57658;51.436;5.980;2023-08-31T00:47:25;35.89;34.01;38.81;;
67300;Laerm;57658;51.436;5.980;2023-08-31T00:47:35;35.00;33.18;37.07;;
67300;Laerm;57658;51.436;5.980;2023-08-31T00:47:46;35.22;32.70;37.77;;
67300;Laerm;57658;51.436;5.980;2023-08-31T00:47:57;33.18;30.94;35.47;;
67300;Laerm;57658;51.436;5.980;2023-08-31T00:48:08;32.49;30.42;34.43;;
67300;Laerm;57658;51.436;5.980;2023-08-31T00:48:18;32.14;30.87;33.24;;
67300;Laerm;57658;51.436;5.980;2023-08-31T00:48:28;32.03;30.88;33.31;;
67300;Laerm;57658;51.436;5.980;2023-08-31T00:48:39;32.00;30.66;33.01;;
67300;Laerm;57658;51.436;5.980;2023-08-31T00:48:50;31.73;30.64;33.25;;
67300;Laerm;57658;51.436;5.980;2023-08-31T00:49:00;31.51;30.23;32.88;;
67300;Laerm;57658;51.436;5.980;2023-08-31T00:49:11;32.02;30.63;35.72;;
67300;Laerm;57658;51.436;5.980;2023-08-31T00:49:22;33.08;31.28;37.02;;
67300;Laerm;57658;51.436;5.980;2023-08-31T00:49:33;32.35;30.98;34.00;;
67300;Laerm;57658;51.436;5.980;2023-08-31T00:49:45;31.55;30.51;32.80;;
67300;Laerm;57658;51.436;5.980;2023-08-31T00:49:55;31.35;30.42;32.53;;
67300;Laerm;57658;51.436;5.980;2023-08-31T00:50:06;31.59;30.63;32.99;;
67300;Laerm;57658;51.436;5.980;2023-08-31T00:50:17;31.89;30.51;33.11;;
67300;Laerm;57658;51.436;5.980;2023-08-31T00:50:27;31.79;30.53;33.09;;
67300;Laerm;57658;51.436;5.980;2023-08-31T00:50:37;31.53;29.89;32.88;;
67300;Laerm;57658;51.436;5.980;2023-08-31T00:50:48;32.04;30.59;33.35;;
67300;Laerm;57658;51.436;5.980;2023-08-31T00:50:58;31.72;30.36;33.34;;
67300;Laerm;57658;51.436;5.980;2023-08-31T00:51:11;31.94;30.52;33.78;;
67300;Laerm;57658;51.436;5.980;2023-08-31T00:51:21;31.64;30.55;32.73;;
67300;Laerm;57658;51.436;5.980;2023-08-31T00:51:31;31.59;30.53;32.86;;
67300;Laerm;57658;51.436;5.980;2023-08-31T00:51:42;31.69;30.20;33.03;;
67300;Laerm;57658;51.436;5.980;2023-08-31T00:51:57;31.93;30.07;33.64;;
67300;Laerm;57658;51.436;5.980;2023-08-31T00:52:07;31.74;30.47;33.43;;
67300;Laerm;57658;51.436;5.980;2023-08-31T00:52:18;31.85;30.56;32.85;;
67300;Laerm;57658;51.436;5.980;2023-08-31T00:52:29;32.39;31.27;33.74;;
67300;Laerm;57658;51.436;5.980;2023-08-31T00:52:40;33.11;31.23;35.71;;
67300;Laerm;57658;51.436;5.980;2023-08-31T00:52:50;33.85;31.85;37.34;;
67300;Laerm;57658;51.436;5.980;2023-08-31T00:53:01;32.67;31.00;35.31;;
67300;Laerm;57658;51.436;5.980;2023-08-31T00:53:11;32.22;30.56;33.81;;
67300;Laerm;57658;51.436;5.980;2023-08-31T00:53:22;31.98;30.78;32.93;;
67300;Laerm;57658;51.436;5.980;2023-08-31T00:53:33;31.95;30.70;33.33;;
67300;Laerm;57658;51.436;5.980;2023-08-31T00:53:43;31.92;30.49;33.16;;
67300;Laerm;57658;51.436;5.980;2023-08-31T00:53:54;32.25;30.51;33.62;;
67300;Laerm;57658;51.436;5.980;2023-08-31T00:54:05;32.11;30.78;33.28;;
67300;Laerm;57658;51.436;5.980;2023-08-31T00:54:16;31.39;30.11;32.55;;
67300;Laerm;57658;51.436;5.980;2023-08-31T00:54:27;32.07;30.47;33.71;;
67300;Laerm;57658;51.436;5.980;2023-08-31T00:54:37;32.16;31.04;33.25;;
67300;Laerm;57658;51.436;5.980;2023-08-31T00:54:47;31.69;30.34;32.92;;
67300;Laerm;57658;51.436;5.980;2023-08-31T00:54:59;31.81;30.02;33.21;;
67300;Laerm;57658;51.436;5.980;2023-08-31T00:55:11;31.64;30.28;33.24;;
67300;Laerm;57658;51.436;5.980;2023-08-31T00:55:21;31.33;30.17;32.26;;
67300;Laerm;57658;51.436;5.980;2023-08-31T00:55:31;31.55;30.30;33.09;;
67300;Laerm;57658;51.436;5.980;2023-08-31T00:55:43;69.34;30.57;79.44;;
67300;Laerm;57658;51.436;5.980;2023-08-31T00:55:54;72.39;52.45;79.00;;
67300;Laerm;57658;51.436;5.980;2023-08-31T00:56:04;56.70;51.71;58.79;;
67300;Laerm;57658;51.436;5.980;2023-08-31T00:56:16;56.43;51.98;58.61;;
67300;Laerm;57658;51.436;5.980;2023-08-31T00:56:27;56.91;52.93;58.90;;
67300;Laerm;57658;51.436;5.980;2023-08-31T00:56:37;80.07;54.33;86.57;;
67300;Laerm;57658;51.436;5.980;2023-08-31T00:56:51;83.57;79.18;86.60;;
67300;Laerm;57658;51.436;5.980;2023-08-31T00:57:02;80.95;60.45;85.21;;
67300;Laerm;57658;51.436;5.980;2023-08-31T00:57:13;56.29;48.65;63.02;;
67300;Laerm;57658;51.436;5.980;2023-08-31T00:57:23;47.47;41.22;51.89;;
67300;Laerm;57658;51.436;5.980;2023-08-31T00:57:36;41.77;38.46;44.29;;
67300;Laerm;57658;51.436;5.980;2023-08-31T00:57:46;40.24;36.66;43.22;;
67300;Laerm;57658;51.436;5.980;2023-08-31T00:57:58;39.58;36.12;43.42;;
67300;Laerm;57658;51.436;5.980;2023-08-31T00:58:08;41.49;36.86;44.59;;
67300;Laerm;57658;51.436;5.980;2023-08-31T00:58:18;38.36;36.18;40.80;;
67300;Laerm;57658;51.436;5.980;2023-08-31T00:58:29;35.48;33.00;38.49;;
67300;Laerm;57658;51.436;5.980;2023-08-31T00:58:40;35.70;32.81;39.39;;
67300;Laerm;57658;51.436;5.980;2023-08-31T00:58:51;34.70;32.87;36.87;;
67300;Laerm;57658;51.436;5.980;2023-08-31T00:59:01;33.49;32.18;35.07;;
67300;Laerm;57658;51.436;5.980;2023-08-31T00:59:12;33.35;31.85;37.14;;
67300;Laerm;57658;51.436;5.980;2023-08-31T00:59:24;34.40;32.59;36.39;;
67300;Laerm;57658;51.436;5.980;2023-08-31T00:59:34;34.33;32.45;39.44;;
67300;Laerm;57658;51.436;5.980;2023-08-31T00:59:44;33.53;32.31;35.08;;
67300;Laerm;57658;51.436;5.980;2023-08-31T00:59:55;33.61;31.85;35.44;;
67300;Laerm;57658;51.436;5.980;2023-08-31T01:00:06;50.48;31.40;65.97;;
67300;Laerm;57658;51.436;5.980;2023-08-31T01:00:17;52.61;31.59;66.23;;
67300;Laerm;57658;51.436;5.980;2023-08-31T01:00:35;33.48;31.79;35.17;;
67300;Laerm;57658;51.436;5.980;2023-08-31T01:01:18;33.56;31.91;35.93;;
67300;Laerm;57658;51.436;5.980;2023-08-31T01:02:07;32.30;30.81;34.39;;
67300;Laerm;57658;51.436;5.980;2023-08-31T01:02:19;32.43;31.00;34.73;;
67300;Laerm;57658;51.436;5.980;2023-08-31T01:02:55;31.77;30.65;33.26;;
67300;Laerm;57658;51.436;5.980;2023-08-31T01:04:32;31.51;30.47;32.85;;